Tropical Cyclones
[Index]
Main Index Home Page Stock Weather Photos Extreme Storms Discussion Storm News and Storm Chasing Reports Tropical Cyclones / Hurricanes / Typhoons Weather Data and Links Wild Fires / Bushfires Weather Observation Techniques Weather Picture Catalogue Tornado Pictures and Reports Stock Video Footage and DVDs for sale
Season 2001-2002 Tropical Cyclone ERROL Track Map
Season 2001-2002 Summaries: [BoM-AU] [JTWC-AU] [JTWC-SIO] [JTWC-SPAC] [JTWC-SH]
<<- Previous TC | JTWC 2001-2002 Season | Next TC ->>

click for intensity scale information  Lat/long Grid: Show Hide

 Date Labels: Show Hide

Joint Typhoon Warning Centre Cyclone Data

Name: ERROL

09 May 2002 06:00 UTC to 14 May 2002 12:00 UTC

    date/time    lat    long     hPa   cat  kts
2002-05-09 06    6.6    97.4    1000         30          
2002-05-09 12    6.9    97.1    1000         30          
2002-05-09 18    6.9    96.8    1000         30          
2002-05-10 00    6.9    96.6     997         35          
2002-05-10 06    6.3    97.6     997         35          
2002-05-10 12    6.2    97.4    1000         30          
2002-05-10 18    6.1    97.2     997         35          
2002-05-11 00    6.0    96.8     997         35          
2002-05-11 06    5.8    96.3     991    1    45          
2002-05-11 12    6.0    95.8     991    1    45          
2002-05-11 18    6.2    95.3     991    1    45          
2002-05-12 00    6.4    95.0     994    1    40          
2002-05-12 06    6.5    95.3     994    1    40          
2002-05-12 12    6.7    94.9     994    1    40          
2002-05-12 18    7.5    94.6     994    1    40          
2002-05-13 00    8.1    95.3     994    1    40          
2002-05-13 06    8.4    95.5     997         35          
2002-05-13 12    8.7    95.7     997         35          
2002-05-13 18    9.0    96.0     997         35          
2002-05-14 00    9.4    96.4    1000         30          
2002-05-14 06   10.0    96.8    1002         25          
2002-05-14 12   10.8    97.3    1002         25          
Winds are 1-min average.

Tropical cyclone tracks developed by Michael Bath using data from the Joint Typhoon Warning Centre Best Tracks and Google Maps.


[Australian Severe Weather index] [Copyright Notice] [Email Contacts] [Search This Site] [Privacy Policy]
Document: tropical_cyclone_errol.htm Updated: 28 June 2017